Time;durP1;ratioP1;P1;durP2;ratioP2;P2;SDS_P1;SDS_P2;PMS_P1;PMS_P2;Temp;Humidity;BMP_temperature;BMP_pressure;BME280_temperature;BME280_humidity;BME280_pressure;Samples;Min_cycle;Max_cycle;Signal;HPM_P1;HPM_P2
2022/04/02 00:00:40;;;;;;;9.40;7.20;;;;;;;2.97;65.61;97418.35;233856;1217;142593;-57
2022/04/02 00:05:43;;;;;;;9.50;7.60;;;;;;;2.93;65.69;97417.57;233795;1217;138461;-58
2022/04/02 00:10:46;;;;;;;10.10;7.70;;;;;;;2.91;65.59;97408.52;233766;1217;139552;-58
2022/04/02 00:15:51;;;;;;;9.70;7.90;;;;;;;2.90;65.70;97407.05;233981;1217;138574;-56
2022/04/02 00:20:54;;;;;;;10.00;7.90;;;;;;;2.89;65.90;97404.09;233782;1217;138310;-54
2022/04/02 00:25:57;;;;;;;8.10;6.30;;;;;;;2.94;65.73;97404.73;233953;1217;138255;-54
2022/04/02 00:31:00;;;;;;;9.90;7.20;;;;;;;2.99;65.80;97409.68;233875;1217;140319;-54
2022/04/02 00:36:04;;;;;;;9.20;7.30;;;;;;;3.03;66.01;97415.72;233947;1217;139525;-58
2022/04/02 00:41:08;;;;;;;9.00;7.00;;;;;;;3.11;66.01;97420.16;233887;1217;139550;-56
2022/04/02 00:46:12;;;;;;;8.30;7.10;;;;;;;3.14;65.83;97424.73;233661;1217;137980;-56
2022/04/02 00:51:18;;;;;;;8.90;7.60;;;;;;;3.13;65.63;97431.10;233816;1217;138486;-56
2022/04/02 00:56:22;;;;;;;8.70;6.90;;;;;;;3.12;65.58;97432.95;233762;1217;138448;-57
2022/04/02 01:01:25;;;;;;;8.80;6.80;;;;;;;3.09;65.68;97434.14;233937;1217;138566;-54
2022/04/02 01:06:29;;;;;;;7.90;7.00;;;;;;;3.06;65.57;97435.71;233902;1217;138113;-58
2022/04/02 01:11:40;;;;;;;8.60;6.60;;;;;;;3.02;65.57;97441.69;233805;1217;138583;-59
2022/04/02 01:16:43;;;;;;;8.20;6.40;;;;;;;3.00;65.55;97439.21;233846;1217;138635;-59
2022/04/02 01:21:55;;;;;;;10.20;7.10;;;;;;;2.98;65.55;97438.58;233733;1217;138267;-58
2022/04/02 01:27:11;;;;;;;9.00;7.10;;;;;;;2.96;65.51;97441.52;233955;1217;138365;-56
2022/04/02 01:32:20;;;;;;;8.80;6.90;;;;;;;2.95;65.58;97444.21;234013;1216;139640;-58
2022/04/02 01:37:29;;;;;;;7.00;6.00;;;;;;;2.96;65.58;97445.38;233809;1217;139355;-57
2022/04/02 01:42:35;;;;;;;8.10;6.40;;;;;;;3.02;65.73;97445.38;233800;1217;138733;-57
2022/04/02 01:47:42;;;;;;;7.70;6.00;;;;;;;3.08;65.63;97446.98;233748;1217;138195;-56
2022/04/02 01:52:45;;;;;;;6.90;5.90;;;;;;;3.11;65.72;97446.63;233705;1217;138934;-55
2022/04/02 01:57:52;;;;;;;6.70;5.90;;;;;;;3.11;65.55;97447.02;233659;1217;138634;-57
2022/04/02 02:03:03;;;;;;;6.50;5.40;;;;;;;3.08;65.47;97451.16;233855;1217;138476;-59
2022/04/02 02:08:07;;;;;;;6.10;5.50;;;;;;;3.05;65.49;97451.50;234099;1217;138125;-54
2022/04/02 02:13:23;;;;;;;6.60;5.40;;;;;;;3.03;65.41;97451.33;233932;1217;138338;-54
2022/04/02 02:18:26;;;;;;;6.50;5.20;;;;;;;3.00;65.39;97450.08;233910;1217;138054;-57
2022/04/02 02:23:29;;;;;;;8.10;5.60;;;;;;;2.97;65.44;97454.26;233816;1217;139807;-59
2022/04/02 02:28:33;;;;;;;6.30;5.30;;;;;;;2.96;65.43;97455.90;233805;1217;138788;-57
2022/04/02 02:38:59;;;;;;;7.20;5.20;;;;;;;2.94;65.51;97464.91;233935;1217;138365;-57
2022/04/02 02:44:11;;;;;;;5.60;4.30;;;;;;;2.98;65.46;97460.69;233791;1217;139369;-57
2022/04/02 02:49:19;;;;;;;6.10;4.90;;;;;;;3.02;65.43;97462.56;233812;1217;138608;-58
2022/04/02 02:54:24;;;;;;;4.20;3.40;;;;;;;3.04;65.44;97464.52;233879;1217;138482;-56
2022/04/02 02:59:28;;;;;;;5.50;4.80;;;;;;;3.06;65.42;97464.29;233878;1217;139140;-54
2022/04/02 03:04:31;;;;;;;5.90;4.70;;;;;;;3.05;65.31;97463.08;233947;1217;138664;-56
2022/04/02 03:09:40;;;;;;;6.20;4.70;;;;;;;3.01;65.34;97473.32;233946;1217;138276;-53
2022/04/02 03:14:43;;;;;;;6.40;5.30;;;;;;;2.98;65.27;97474.36;233905;1217;138193;-55
2022/04/02 03:19:46;;;;;;;264.90;160.30;;;;;;;3.00;65.32;97473.71;233996;1217;140024;-54
2022/04/02 03:24:50;;;;;;;17.10;10.80;;;;;;;3.05;65.68;97468.55;233943;1217;138823;-52
2022/04/02 03:29:54;;;;;;;8.50;5.70;;;;;;;3.08;65.54;97472.35;233944;1217;138860;-55
2022/04/02 03:34:57;;;;;;;8.20;5.50;;;;;;;3.04;65.31;97477.51;233980;1217;138064;-54
2022/04/02 03:40:05;;;;;;;5.60;5.00;;;;;;;2.98;65.21;97480.46;233866;1217;138537;-54
2022/04/02 03:45:09;;;;;;;20.70;14.00;;;;;;;3.00;65.41;97481.06;233968;1217;138036;-52
2022/04/02 03:50:13;;;;;;;7.70;4.90;;;;;;;3.04;65.44;97487.66;234112;1217;138614;-54
2022/04/02 03:55:21;;;;;;;6.40;4.60;;;;;;;3.05;65.29;97492.85;233905;1217;139057;-57
2022/04/02 04:00:24;;;;;;;5.70;4.60;;;;;;;3.09;65.23;97491.61;233906;1217;138465;-54
2022/04/02 04:05:35;;;;;;;4.90;4.40;;;;;;;3.11;65.17;97496.60;233895;1217;140250;-56
2022/04/02 04:10:39;;;;;;;6.60;4.90;;;;;;;3.12;65.17;97504.25;233585;1217;137621;-60
2022/04/02 04:15:42;;;;;;;4.90;4.40;;;;;;;3.10;64.98;97512.42;233921;1217;138273;-58
2022/04/02 04:20:48;;;;;;;4.60;4.10;;;;;;;3.06;65.04;97516.44;233901;1217;138557;-56
2022/04/02 04:25:57;;;;;;;4.80;4.20;;;;;;;3.01;65.06;97525.14;233980;1217;138190;-58
2022/04/02 04:31:01;;;;;;;4.80;4.30;;;;;;;2.99;65.02;97524.23;233785;1217;138825;-55
2022/04/02 04:36:04;;;;;;;5.10;4.20;;;;;;;2.98;65.06;97526.57;233799;1217;138133;-54
2022/04/02 04:41:08;;;;;;;4.40;3.90;;;;;;;2.95;65.06;97527.28;233810;1217;139715;-55
2022/04/02 04:46:12;;;;;;;5.10;4.20;;;;;;;2.90;65.24;97528.03;233752;1217;138506;-57
2022/04/02 04:51:15;;;;;;;5.50;4.80;;;;;;;2.90;65.19;97533.48;233887;1217;139199;-56
2022/04/02 04:56:19;;;;;;;4.80;4.00;;;;;;;2.89;65.27;97538.43;233930;1217;138987;-57
2022/04/02 05:01:23;;;;;;;6.00;4.50;;;;;;;2.90;65.16;97543.67;233624;1217;138755;-57
2022/04/02 05:06:28;;;;;;;4.90;4.10;;;;;;;2.94;65.13;97542.16;233921;1217;139178;-57
2022/04/02 05:11:33;;;;;;;5.20;4.70;;;;;;;3.02;65.21;97544.75;233879;1217;138653;-58
2022/04/02 05:16:36;;;;;;;5.60;4.70;;;;;;;3.08;65.26;97544.08;233821;1217;141540;-57
2022/04/02 05:21:42;;;;;;;5.00;4.50;;;;;;;3.12;65.18;97543.46;233848;1217;140272;-55
2022/04/02 05:26:49;;;;;;;5.50;4.30;;;;;;;3.13;65.02;97549.23;233862;1217;138290;-57
2022/04/02 05:31:56;;;;;;;6.80;4.50;;;;;;;3.12;64.97;97555.23;233651;1217;138601;-55
2022/04/02 05:36:59;;;;;;;5.30;4.50;;;;;;;3.07;64.97;97557.03;233821;1217;138183;-57
2022/04/02 05:42:05;;;;;;;5.70;5.10;;;;;;;3.05;64.90;97560.45;233939;1217;139145;-56
2022/04/02 05:47:09;;;;;;;6.80;5.50;;;;;;;3.03;64.90;97567.79;233802;1217;138505;-57
2022/04/02 05:52:18;;;;;;;7.40;5.00;;;;;;;3.02;64.98;97571.33;233937;1217;138999;-58
2022/04/02 05:57:21;;;;;;;6.10;4.90;;;;;;;3.01;65.05;97576.83;233754;1217;137933;-57
2022/04/02 06:02:24;;;;;;;6.80;5.20;;;;;;;3.01;65.04;97578.09;234071;1217;139398;-56
2022/04/02 06:07:27;;;;;;;6.70;5.30;;;;;;;2.98;65.10;97581.17;233860;1217;140528;-56
2022/04/02 06:12:32;;;;;;;6.10;5.00;;;;;;;2.97;65.03;97583.91;233911;1217;138183;-59
2022/04/02 06:17:35;;;;;;;6.30;4.90;;;;;;;2.96;64.94;97582.23;233911;1217;138138;-58
2022/04/02 06:22:39;;;;;;;5.50;4.50;;;;;;;2.98;65.17;97586.27;233999;1217;138851;-57
2022/04/02 06:27:44;;;;;;;6.10;5.10;;;;;;;3.07;65.15;97586.16;233930;1217;139122;-57
2022/04/02 06:32:47;;;;;;;6.30;5.30;;;;;;;3.19;65.20;97588.32;234027;1216;138386;-54
2022/04/02 06:37:50;;;;;;;6.20;5.30;;;;;;;3.26;65.04;97587.56;234065;1217;138964;-57
2022/04/02 06:42:56;;;;;;;6.20;5.10;;;;;;;3.33;65.17;97593.13;233958;1216;138150;-58
2022/04/02 06:48:19;;;;;;;6.20;5.50;;;;;;;3.39;65.09;97599.99;233925;1217;139098;-58
2022/04/02 06:53:23;;;;;;;7.00;5.80;;;;;;;3.42;65.00;97601.91;234017;1217;138262;-57
2022/04/02 06:58:30;;;;;;;6.30;5.60;;;;;;;3.43;64.94;97599.89;233945;1217;139527;-57
2022/04/02 07:03:37;;;;;;;7.50;5.30;;;;;;;3.45;64.70;97607.70;233897;1217;138301;-57
2022/04/02 07:08:40;;;;;;;6.30;5.00;;;;;;;3.45;64.73;97612.59;233802;1217;139835;-58
2022/04/02 07:13:43;;;;;;;5.90;5.30;;;;;;;3.45;64.73;97616.48;234017;1217;138475;-57
2022/04/02 07:18:48;;;;;;;6.40;5.30;;;;;;;3.44;64.55;97620.39;233934;1217;138427;-58
2022/04/02 07:23:52;;;;;;;6.30;5.20;;;;;;;3.42;64.51;97624.51;233999;1217;138147;-58
2022/04/02 07:28:55;;;;;;;6.20;5.20;;;;;;;3.41;64.56;97628.23;233852;1217;138319;-57
2022/04/02 07:33:59;;;;;;;6.00;5.10;;;;;;;3.41;64.59;97631.74;234017;1217;140054;-56
2022/04/02 07:39:25;;;;;;;7.00;5.20;;;;;;;3.42;64.56;97637.15;233805;1217;138671;-56
2022/04/02 07:44:35;;;;;;;6.60;5.30;;;;;;;3.45;64.58;97644.19;234111;1217;140202;-57
2022/04/02 07:49:41;;;;;;;6.30;5.20;;;;;;;3.55;64.70;97643.77;233966;1216;138902;-57
2022/04/02 07:54:47;;;;;;;5.80;5.00;;;;;;;3.62;64.45;97648.10;233986;1217;139477;-57
2022/04/02 07:59:58;;;;;;;219.60;123.90;;;;;;;3.67;64.44;97653.27;233816;1216;138686;-57
2022/04/02 08:05:02;;;;;;;12.20;7.80;;;;;;;3.73;64.45;97655.02;233843;1217;139780;-59
2022/04/02 08:10:10;;;;;;;7.70;5.90;;;;;;;3.75;64.28;97659.48;233803;1217;138493;-57
2022/04/02 08:15:20;;;;;;;6.10;5.10;;;;;;;3.73;64.07;97666.61;233803;1216;138407;-57
2022/04/02 08:20:26;;;;;;;5.50;4.50;;;;;;;3.71;63.92;97673.70;233986;1215;138378;-58
2022/04/02 08:25:29;;;;;;;183.70;107.60;;;;;;;3.70;63.95;97675.70;233935;1215;138378;-55
2022/04/02 08:30:43;;;;;;;13.50;8.60;;;;;;;3.76;63.96;97683.42;233905;1216;141561;-57
2022/04/02 08:36:02;;;;;;;9.60;6.50;;;;;;;3.74;63.84;97686.21;233937;1217;138414;-58
2022/04/02 08:41:49;;;;;;;7.00;5.80;;;;;;;3.67;63.60;97692.38;233948;1217;138421;-58
2022/04/02 08:47:07;;;;;;;7.20;6.10;;;;;;;3.63;63.77;97699.42;233567;1217;138123;-58
2022/04/02 08:52:13;;;;;;;7.00;5.60;;;;;;;3.56;63.67;97701.40;233925;1217;139077;-58
2022/04/02 08:57:30;;;;;;;;;;;;;;;3.51;63.73;97699.41;233847;1216;139034;-57
2022/04/02 09:02:56;;;;;;;7.50;6.40;;;;;;;3.46;63.64;97705.82;234058;1215;125027;-58
2022/04/02 09:08:42;;;;;;;25.70;17.10;;;;;;;3.48;64.01;97711.31;233994;1217;138254;-54
2022/04/02 09:14:26;;;;;;;8.10;6.30;;;;;;;3.55;63.90;97717.20;233872;1215;139241;-56
2022/04/02 09:19:56;;;;;;;8.10;6.60;;;;;;;3.55;63.81;97722.67;233389;1220;140254;-57
2022/04/02 09:25:08;;;;;;;6.70;5.90;;;;;;;3.59;63.88;97729.98;233801;1217;140086;-57
2022/04/02 09:30:35;;;;;;;8.10;6.90;;;;;;;3.64;63.67;97734.66;233938;1217;138290;-58
2022/04/02 09:36:15;;;;;;;8.00;6.50;;;;;;;3.64;63.56;97736.38;233892;1217;138572;-57
2022/04/02 09:41:45;;;;;;;10.50;6.40;;;;;;;3.61;63.51;97743.93;233684;1217;138178;-58
2022/04/02 09:47:01;;;;;;;7.90;6.40;;;;;;;3.56;63.35;97749.45;233997;1217;138536;-58
2022/04/02 09:52:18;;;;;;;8.00;6.50;;;;;;;3.51;63.22;97753.06;233894;1215;138543;-57
2022/04/02 09:57:39;;;;;;;7.80;6.40;;;;;;;3.50;63.24;97753.65;233779;1217;138538;-58
2022/04/02 10:03:05;;;;;;;8.40;6.90;;;;;;;3.46;63.29;97755.58;233938;1217;138294;-56
2022/04/02 10:08:09;;;;;;;7.60;6.10;;;;;;;3.44;63.32;97762.38;233963;1215;138818;-58
2022/04/02 10:13:14;;;;;;;9.80;7.20;;;;;;;3.40;63.26;97760.47;233939;1217;138999;-57
2022/04/02 10:18:24;;;;;;;9.80;8.30;;;;;;;3.33;62.97;97759.98;233864;1217;138565;-58
2022/04/02 10:23:30;;;;;;;10.20;7.60;;;;;;;3.21;62.85;97766.04;233854;1216;138663;-57
2022/04/02 10:28:42;;;;;;;9.30;7.30;;;;;;;3.18;63.24;97767.80;234029;1216;139020;-58
2022/04/02 10:33:48;;;;;;;8.70;7.30;;;;;;;3.19;63.30;97774.73;233480;1217;139003;-57
2022/04/02 10:38:52;;;;;;;9.30;7.00;;;;;;;3.20;63.40;97779.09;234009;1217;139340;-56
2022/04/02 10:44:34;;;;;;;8.20;6.70;;;;;;;3.24;63.44;97779.36;233870;1217;139286;-58
2022/04/02 10:49:40;;;;;;;11.40;7.70;;;;;;;3.31;63.29;97782.88;233568;1215;139532;-57
2022/04/02 10:54:48;;;;;;;9.50;7.00;;;;;;;3.32;63.04;97786.32;233785;1216;138694;-59
2022/04/02 11:00:03;;;;;;;12.70;8.30;;;;;;;3.37;63.17;97789.77;233616;1217;138318;-58
2022/04/02 11:05:14;;;;;;;11.70;9.10;;;;;;;3.38;63.14;97794.61;233988;1216;142461;-57
2022/04/02 11:10:20;;;;;;;11.30;8.60;;;;;;;3.35;62.90;97795.83;233830;1217;138800;-58
2022/04/02 11:15:24;;;;;;;9.40;7.50;;;;;;;3.29;62.71;97803.50;233816;1216;139012;-58
2022/04/02 11:20:34;;;;;;;10.90;8.70;;;;;;;3.18;62.55;97810.19;233958;1217;138066;-58
2022/04/02 11:25:43;;;;;;;10.60;8.40;;;;;;;3.04;62.59;97815.83;234001;1217;139150;-58
2022/04/02 11:31:03;;;;;;;10.40;8.30;;;;;;;2.96;62.79;97822.17;233997;1216;138682;-57
2022/04/02 11:36:14;;;;;;;9.50;7.90;;;;;;;2.94;62.84;97823.71;234030;1217;138797;-58
2022/04/02 11:41:27;;;;;;;10.90;8.20;;;;;;;2.91;62.77;97826.12;233950;1217;139105;-58
2022/04/02 11:46:59;;;;;;;11.00;8.10;;;;;;;2.91;62.79;97829.98;234000;1215;138793;-58
2022/04/02 11:52:12;;;;;;;9.60;7.40;;;;;;;2.95;62.86;97835.70;233945;1217;138859;-58
2022/04/02 11:57:19;;;;;;;9.70;7.70;;;;;;;2.97;62.89;97840.73;233878;1217;139022;-57
2022/04/02 12:02:42;;;;;;;11.00;8.30;;;;;;;2.98;62.95;97842.77;234085;1217;138045;-58
2022/04/02 12:07:52;;;;;;;9.50;7.90;;;;;;;2.98;62.68;97847.13;233836;1216;138111;-57
2022/04/02 12:13:16;;;;;;;12.40;8.60;;;;;;;2.95;62.49;97851.50;233892;1215;138681;-57
2022/04/02 12:18:20;;;;;;;11.20;8.70;;;;;;;2.88;62.50;97852.58;233966;1216;139320;-56
2022/04/02 12:23:23;;;;;;;11.60;8.60;;;;;;;2.83;62.44;97861.23;233991;1217;138365;-58
2022/04/02 12:28:26;;;;;;;11.30;8.50;;;;;;;2.78;62.62;97860.60;233734;1217;138417;-58
2022/04/02 12:33:30;;;;;;;10.60;8.40;;;;;;;2.77;62.60;97867.44;233824;1216;139324;-56
2022/04/02 12:38:35;;;;;;;11.60;9.20;;;;;;;2.76;62.59;97873.13;234060;1217;138389;-58
2022/04/02 12:43:47;;;;;;;11.40;8.70;;;;;;;2.75;62.76;97873.84;233844;1215;138916;-58
2022/04/02 12:48:50;;;;;;;11.60;8.10;;;;;;;2.80;62.94;97876.39;233742;1217;138874;-57
2022/04/02 12:54:03;;;;;;;12.20;9.10;;;;;;;2.87;62.99;97878.17;233855;1216;138984;-58
2022/04/02 12:59:19;;;;;;;11.40;9.00;;;;;;;2.93;62.95;97878.58;233918;1216;139647;-57
2022/04/02 13:04:27;;;;;;;11.60;9.00;;;;;;;2.96;63.00;97874.59;233642;1217;138210;-58
2022/04/02 13:09:35;;;;;;;11.90;9.10;;;;;;;2.95;63.00;97877.08;233879;1216;138294;-57
2022/04/02 13:14:45;;;;;;;14.50;9.30;;;;;;;2.97;62.84;97877.67;233928;1216;138328;-58
2022/04/02 13:25:24;;;;;;;13.30;8.90;;;;;;;2.90;62.60;97895.39;233778;1217;140467;-59
2022/04/02 13:30:56;;;;;;;13.10;9.00;;;;;;;2.84;62.52;97906.14;233952;1216;141382;-57
2022/04/02 13:36:21;;;;;;;12.30;9.80;;;;;;;2.81;62.76;97908.08;233935;1216;138857;-59
2022/04/02 13:41:32;;;;;;;14.00;10.10;;;;;;;2.80;62.71;97910.02;233847;1216;138352;-55
2022/04/02 13:46:43;;;;;;;12.50;9.50;;;;;;;2.79;62.59;97912.36;233873;1217;140407;-59
2022/04/02 13:52:05;;;;;;;13.50;9.10;;;;;;;2.73;62.51;97926.52;233859;1217;138768;-57
2022/04/02 13:57:18;;;;;;;11.70;8.50;;;;;;;2.71;62.46;97931.32;234076;1217;139112;-59
2022/04/02 14:02:29;;;;;;;13.60;9.70;;;;;;;2.73;62.65;97929.69;233903;1215;139004;-59
2022/04/02 14:07:36;;;;;;;11.70;8.80;;;;;;;2.78;62.71;97933.23;233725;1217;138474;-59
2022/04/02 14:12:42;;;;;;;12.60;9.20;;;;;;;2.81;62.60;97936.09;233754;1217;139119;-62
2022/04/02 14:17:48;;;;;;;18.40;13.30;;;;;;;2.79;62.67;97937.55;233887;1216;138535;-59
2022/04/02 14:22:58;;;;;;;246.40;133.50;;;;;;;3.24;65.12;97940.11;234051;1217;138135;-58
2022/04/02 14:28:20;;;;;;;17.40;10.60;;;;;;;3.57;63.40;97933.15;233814;1216;139490;-59
2022/04/02 14:33:56;;;;;;;15.80;10.10;;;;;;;3.43;62.38;97934.21;233843;1216;139537;-58
2022/04/02 14:39:30;;;;;;;143.10;96.00;;;;;;;3.38;62.28;97939.41;233707;1217;138781;-59
2022/04/02 14:44:54;;;;;;;21.40;13.60;;;;;;;3.50;62.99;97937.05;233771;1217;139058;-59
2022/04/02 14:50:36;;;;;;;13.40;9.20;;;;;;;3.59;62.47;97936.56;233663;1217;139449;-59
2022/04/02 14:56:01;;;;;;;13.00;9.60;;;;;;;3.49;62.07;97942.86;233805;1217;138509;-61
2022/04/02 15:01:29;;;;;;;14.80;9.50;;;;;;;3.39;61.92;97947.23;233681;1216;138650;-57
2022/04/02 15:06:58;;;;;;;11.60;8.70;;;;;;;3.25;61.70;97957.05;233653;1216;138367;-56
2022/04/02 15:12:08;;;;;;;16.20;9.30;;;;;;;3.15;61.76;97963.20;233830;1217;140112;-58
2022/04/02 15:17:35;;;;;;;11.40;8.30;;;;;;;3.09;61.76;97967.13;233828;1217;138952;-57
2022/04/02 15:22:39;;;;;;;14.30;9.50;;;;;;;3.03;61.58;97970.06;233726;1216;138335;-58
2022/04/02 15:27:53;;;;;;;12.00;8.90;;;;;;;3.00;61.65;97974.58;233839;1216;140509;-58
2022/04/02 15:33:12;;;;;;;12.00;8.90;;;;;;;2.95;61.67;97978.30;233690;1217;141167;-58
2022/04/02 15:38:19;;;;;;;13.90;9.30;;;;;;;2.88;61.69;97981.64;233657;1217;138490;-59
2022/04/02 15:43:25;;;;;;;13.50;9.40;;;;;;;2.85;61.74;97982.33;233783;1217;138332;-58
2022/04/02 15:49:17;;;;;;;303.50;176.50;;;;;;;2.80;61.79;97989.20;233788;1216;139784;-57
2022/04/02 15:54:41;;;;;;;29.00;18.10;;;;;;;2.97;62.70;97994.84;233856;1217;138924;-58
2022/04/02 15:59:44;;;;;;;19.80;13.60;;;;;;;3.04;62.06;97996.95;233820;1217;139531;-55
2022/04/02 16:05:29;;;;;;;16.30;11.00;;;;;;;2.97;61.85;98001.86;233865;1217;138884;-57
2022/04/02 16:10:32;;;;;;;15.40;10.20;;;;;;;2.93;61.92;98013.64;233387;1219;138551;-59
2022/04/02 16:15:36;;;;;;;144.80;106.00;;;;;;;2.96;62.64;98017.69;233888;1217;138770;-59
2022/04/02 16:20:57;;;;;;;21.50;14.70;;;;;;;3.26;63.35;98017.84;233876;1217;139402;-57
2022/04/02 16:26:03;;;;;;;17.80;11.40;;;;;;;3.51;62.43;98025.01;233792;1217;139193;-58
2022/04/02 16:31:11;;;;;;;13.70;10.20;;;;;;;3.42;62.02;98030.73;233835;1217;140566;-57
2022/04/02 16:36:18;;;;;;;16.30;10.90;;;;;;;3.33;62.06;98038.48;233580;1217;139136;-56
2022/04/02 16:41:34;;;;;;;16.60;11.30;;;;;;;3.21;61.95;98039.60;233875;1217;138916;-58
2022/04/02 16:46:37;;;;;;;15.40;11.40;;;;;;;3.09;62.12;98043.68;233982;1217;138756;-58
2022/04/02 16:51:40;;;;;;;14.20;9.90;;;;;;;3.01;62.51;98043.88;234034;1216;138539;-58
2022/04/02 16:56:43;;;;;;;133.50;99.40;;;;;;;2.95;62.57;98050.30;233951;1217;138563;-58
2022/04/02 17:01:47;;;;;;;28.00;18.90;;;;;;;3.04;63.66;98051.13;233836;1216;138636;-57
2022/04/02 17:07:17;;;;;;;20.40;13.90;;;;;;;3.13;63.25;98059.83;233876;1217;139892;-58
2022/04/02 17:12:22;;;;;;;20.40;13.40;;;;;;;3.00;63.10;98063.59;233809;1217;139561;-58
2022/04/02 17:17:29;;;;;;;25.50;16.50;;;;;;;2.86;63.40;98071.58;233875;1217;139210;-58
2022/04/02 17:22:41;;;;;;;23.60;14.50;;;;;;;2.81;63.50;98079.16;233806;1216;138946;-58
2022/04/02 17:27:47;;;;;;;19.90;13.00;;;;;;;2.82;63.79;98084.71;233891;1216;139354;-57
2022/04/02 17:32:51;;;;;;;;;;;;;;;2.92;64.72;98088.10;233853;1217;138751;-59
2022/04/02 17:37:56;;;;;;;62.20;39.80;;;;;;;3.21;65.08;98084.48;233946;1217;124895;-55
2022/04/02 17:43:05;;;;;;;24.30;16.70;;;;;;;3.40;64.75;98090.45;233923;1216;139716;-59
2022/04/02 17:48:15;;;;;;;23.90;15.30;;;;;;;3.28;63.98;98096.08;233920;1217;138645;-57
2022/04/02 17:53:21;;;;;;;21.20;15.00;;;;;;;3.10;64.05;98102.54;233836;1216;138572;-57
2022/04/02 17:58:24;;;;;;;23.90;15.40;;;;;;;2.92;64.07;98107.05;233879;1217;139034;-59
2022/04/02 18:04:10;;;;;;;23.10;15.90;;;;;;;2.81;64.33;98111.23;234007;1217;139143;-57
2022/04/02 18:09:14;;;;;;;179.00;112.80;;;;;;;2.78;64.87;98125.03;233138;1217;138622;-59
2022/04/02 18:14:17;;;;;;;26.70;18.50;;;;;;;2.92;65.37;98132.83;233281;1217;140816;-58
2022/04/02 18:19:20;;;;;;;26.10;18.00;;;;;;;2.89;64.83;98136.29;233292;1217;139871;-58
2022/04/02 18:24:26;;;;;;;24.50;17.30;;;;;;;2.87;64.81;98135.85;233319;1217;139241;-59
2022/04/02 18:29:31;;;;;;;27.40;18.00;;;;;;;2.89;65.13;98143.81;233389;1217;139199;-58
2022/04/02 18:34:34;;;;;;;27.20;19.20;;;;;;;2.87;65.08;98142.50;233300;1217;138845;-58
2022/04/02 18:39:38;;;;;;;27.50;18.20;;;;;;;2.85;65.24;98144.84;233449;1217;138465;-58
2022/04/02 18:44:41;;;;;;;27.80;19.50;;;;;;;2.83;65.23;98153.19;233474;1217;139529;-59
2022/04/02 18:49:44;;;;;;;27.30;18.80;;;;;;;2.80;65.40;98154.70;233372;1216;140265;-59
2022/04/02 18:54:47;;;;;;;98.50;68.00;;;;;;;2.87;66.19;98154.78;233334;1217;138416;-59
2022/04/02 18:59:50;;;;;;;30.00;20.80;;;;;;;3.18;66.63;98156.64;233305;1217;138791;-57
2022/04/02 19:04:53;;;;;;;24.80;16.90;;;;;;;3.23;65.86;98164.48;233364;1216;139239;-58
2022/04/02 19:09:56;;;;;;;24.20;15.20;;;;;;;3.15;65.52;98165.94;233462;1217;138402;-58
2022/04/02 19:14:59;;;;;;;19.40;13.70;;;;;;;3.10;65.62;98172.64;233243;1217;140113;-57
2022/04/02 19:20:04;;;;;;;22.20;14.40;;;;;;;3.09;65.72;98172.00;233347;1217;139190;-59
2022/04/02 19:25:10;;;;;;;24.80;15.60;;;;;;;3.09;65.75;98179.16;233235;1217;138454;-59
2022/04/02 19:30:15;;;;;;;27.30;17.90;;;;;;;3.06;65.79;98186.49;233280;1217;139348;-58
2022/04/02 19:35:18;;;;;;;26.90;15.30;;;;;;;3.05;66.02;98188.61;233204;1216;138633;-59
2022/04/02 19:40:37;;;;;;;22.60;15.10;;;;;;;3.04;65.87;98188.16;233390;1217;139118;-59
2022/04/02 19:45:40;;;;;;;18.90;12.90;;;;;;;3.00;65.95;98188.14;233430;1217;138577;-59
2022/04/02 19:50:44;;;;;;;20.30;13.50;;;;;;;2.96;65.90;98187.96;233336;1217;138718;-57
2022/04/02 19:55:47;;;;;;;21.10;12.80;;;;;;;2.95;66.11;98188.20;233381;1215;138537;-57
2022/04/02 20:00:50;;;;;;;19.60;11.40;;;;;;;2.95;66.30;98184.36;233300;1217;138690;-58
2022/04/02 20:05:53;;;;;;;16.20;11.50;;;;;;;2.98;66.39;98179.80;233423;1217;138861;-57
2022/04/02 20:10:57;;;;;;;17.80;10.80;;;;;;;3.05;66.41;98179.18;233458;1217;138642;-58
2022/04/02 20:16:01;;;;;;;16.10;9.90;;;;;;;3.12;66.45;98180.08;233397;1217;139278;-62
2022/04/02 20:21:05;;;;;;;17.80;8.90;;;;;;;3.17;66.42;98179.13;233329;1217;139054;-61
2022/04/02 20:26:08;;;;;;;14.40;8.20;;;;;;;3.20;66.27;98179.38;233351;1216;138873;-59
2022/04/02 20:31:17;;;;;;;15.00;8.10;;;;;;;3.21;66.28;98181.61;233269;1217;138725;-59
2022/04/02 20:36:20;;;;;;;14.10;8.10;;;;;;;3.19;66.18;98187.64;233195;1217;138289;-58
2022/04/02 20:41:25;;;;;;;12.50;7.90;;;;;;;3.18;66.22;98185.77;233360;1217;139065;-59
2022/04/02 20:46:28;;;;;;;12.40;7.70;;;;;;;3.16;66.08;98186.75;233188;1217;139423;-59
2022/04/02 20:51:33;;;;;;;11.60;7.70;;;;;;;3.12;66.07;98190.43;233416;1217;138971;-60
2022/04/02 20:56:38;;;;;;;11.60;8.20;;;;;;;3.09;66.12;98197.89;233199;1217;138357;-60
2022/04/02 21:01:41;;;;;;;18.20;8.60;;;;;;;3.06;66.14;98205.23;233271;1217;138308;-60
2022/04/02 21:06:44;;;;;;;13.60;7.20;;;;;;;3.07;66.14;98211.69;233351;1217;139475;-60
2022/04/02 21:11:48;;;;;;;12.40;8.50;;;;;;;3.11;66.22;98211.67;233318;1217;138836;-60
2022/04/02 21:16:51;;;;;;;14.90;8.30;;;;;;;3.17;66.31;98211.38;233199;1217;138863;-60
2022/04/02 21:21:54;;;;;;;14.60;8.80;;;;;;;3.17;66.14;98208.05;233463;1217;139936;-59
2022/04/02 21:26:58;;;;;;;13.80;9.00;;;;;;;3.13;66.12;98208.24;233453;1217;138666;-60
2022/04/02 21:32:01;;;;;;;15.80;9.00;;;;;;;3.07;66.06;98210.41;233452;1217;138434;-56
2022/04/02 21:37:04;;;;;;;13.90;8.60;;;;;;;3.02;66.12;98211.03;233442;1217;139028;-58
2022/04/02 21:42:11;;;;;;;14.30;8.70;;;;;;;3.04;66.30;98212.11;233451;1217;138418;-58
2022/04/02 21:47:14;;;;;;;13.90;8.30;;;;;;;3.06;66.14;98215.89;233174;1217;138326;-59
2022/04/02 21:52:18;;;;;;;15.70;8.50;;;;;;;3.04;66.04;98223.71;233411;1217;139257;-58
2022/04/02 21:57:20;;;;;;;14.50;8.70;;;;;;;2.99;66.02;98225.00;233244;1217;139583;-58
2022/04/02 22:02:30;;;;;;;15.30;9.20;;;;;;;2.93;66.10;98229.81;233341;1215;138736;-58
2022/04/02 22:07:33;;;;;;;16.30;8.10;;;;;;;2.93;66.22;98225.46;233355;1217;140083;-60
2022/04/02 22:12:36;;;;;;;20.00;9.10;;;;;;;2.98;66.33;98228.20;233342;1217;140293;-58
2022/04/02 22:17:39;;;;;;;18.60;9.20;;;;;;;3.08;66.23;98230.89;233360;1217;138597;-58
2022/04/02 22:22:43;;;;;;;14.00;8.20;;;;;;;3.14;66.23;98231.38;233409;1217;138603;-59
2022/04/02 22:27:46;;;;;;;11.20;7.00;;;;;;;3.16;66.04;98228.27;233483;1217;139603;-57
2022/04/02 22:32:49;;;;;;;11.40;7.10;;;;;;;3.16;65.61;98224.07;233322;1217;138151;-60
2022/04/02 22:37:53;;;;;;;14.50;7.20;;;;;;;3.15;65.68;98224.27;233292;1217;139552;-61
2022/04/02 22:42:56;;;;;;;8.20;6.20;;;;;;;3.11;65.55;98232.52;233321;1217;138171;-59
2022/04/02 22:47:59;;;;;;;9.50;6.00;;;;;;;3.07;65.62;98237.44;233242;1217;138635;-59
2022/04/02 22:53:03;;;;;;;9.90;6.30;;;;;;;3.00;65.59;98238.77;233329;1215;138361;-60
2022/04/02 22:58:06;;;;;;;12.70;6.80;;;;;;;2.96;65.77;98244.94;233351;1217;138967;-61
2022/04/02 23:03:09;;;;;;;11.00;6.40;;;;;;;2.92;65.78;98248.95;233065;1217;138572;-60
2022/04/02 23:08:12;;;;;;;11.40;6.90;;;;;;;2.88;65.79;98254.57;233316;1216;138682;-60
2022/04/02 23:13:15;;;;;;;12.10;7.00;;;;;;;2.85;65.72;98261.52;233359;1217;139637;-58
2022/04/02 23:18:18;;;;;;;10.40;7.10;;;;;;;2.87;65.90;98268.10;233264;1215;139069;-55
2022/04/02 23:23:22;;;;;;;16.00;8.60;;;;;;;2.92;65.91;98263.17;233397;1217;138956;-58
2022/04/02 23:28:25;;;;;;;16.50;9.40;;;;;;;2.94;65.98;98266.40;233502;1216;140029;-59
2022/04/02 23:33:29;;;;;;;17.30;8.70;;;;;;;2.89;65.80;98270.30;233350;1217;138543;-59
2022/04/02 23:38:32;;;;;;;18.50;9.40;;;;;;;2.85;65.75;98267.84;233269;1216;138417;-61
2022/04/02 23:43:35;;;;;;;17.40;9.60;;;;;;;2.80;65.83;98264.90;233523;1217;138976;-58
2022/04/02 23:48:38;;;;;;;16.20;9.50;;;;;;;2.77;66.05;98265.91;233495;1215;139612;-58
2022/04/02 23:53:41;;;;;;;20.20;9.90;;;;;;;2.77;66.11;98266.74;233374;1217;139642;-56